createdAt,value
2022-12-12T00:00:19.547Z,9.1
2022-12-12T00:02:23.466Z,7.4
2022-12-12T00:04:27.109Z,7.5
2022-12-12T00:06:30.905Z,6.2
2022-12-12T00:08:34.697Z,5.6
2022-12-12T00:12:45.383Z,8.6
2022-12-12T00:14:49.215Z,7.9
2022-12-12T00:20:00.309Z,6.7
2022-12-12T00:22:04.023Z,8.5
2022-12-12T00:24:10.970Z,10.1
2022-12-12T00:26:14.754Z,10.7
2022-12-12T00:28:18.542Z,8.1
2022-12-12T00:30:22.345Z,9.2
2022-12-12T00:32:26.109Z,8.3
2022-12-12T00:34:29.895Z,8.3
2022-12-12T00:36:33.752Z,5.9
2022-12-12T00:38:40.682Z,8.5
2022-12-12T00:42:48.241Z,9
2022-12-12T00:44:52.022Z,5.9
2022-12-12T00:46:55.838Z,7.1
2022-12-12T00:48:59.599Z,8.9
2022-12-12T00:53:10.296Z,6.3
2022-12-12T00:55:14.721Z,11.8
2022-12-12T00:57:17.875Z,7.6
2022-12-12T01:03:29.251Z,6.9
2022-12-12T01:07:39.939Z,8.1
2022-12-12T01:16:58.545Z,7.5
2022-12-12T01:21:09.232Z,6.4
2022-12-12T01:27:20.686Z,9.3
2022-12-12T01:31:28.285Z,6
2022-12-12T01:33:32.034Z,8.3
2022-12-12T01:35:38.982Z,6.4
2022-12-12T01:37:42.760Z,6.1
2022-12-12T01:45:57.977Z,7.8
2022-12-12T01:48:05.216Z,5.4
2022-12-12T01:50:08.663Z,6.4
2022-12-12T01:52:12.478Z,7.8
2022-12-12T01:54:16.294Z,6.3
2022-12-12T01:56:20.084Z,6
2022-12-12T01:58:23.849Z,6.2
2022-12-12T02:00:27.784Z,8.8
2022-12-12T02:02:31.470Z,6.4
2022-12-12T02:04:38.358Z,8.2
2022-12-12T02:06:42.140Z,8.1
2022-12-12T02:08:45.907Z,8.2
2022-12-12T02:09:49.383Z,9.2
2022-12-12T02:13:56.951Z,8.5
2022-12-12T02:16:00.774Z,10.6
2022-12-12T02:18:12.508Z,6.6
2022-12-12T02:20:11.454Z,7.6
2022-12-12T02:24:24.327Z,5.6
2022-12-12T02:26:22.821Z,8
2022-12-12T02:28:26.599Z,5.1
2022-12-12T02:30:30.408Z,6.3
2022-12-12T02:32:37.341Z,9.1
2022-12-12T02:34:41.122Z,7.3
2022-12-12T02:36:44.905Z,6.3
2022-12-12T02:38:48.680Z,8.9
2022-12-12T02:42:56.266Z,8.7
2022-12-12T02:45:00.120Z,7.9
2022-12-12T02:47:07.010Z,8.9
2022-12-12T02:51:14.567Z,7.4
2022-12-12T02:53:18.326Z,6.7
2022-12-12T02:55:22.127Z,5.5
2022-12-12T02:57:25.939Z,8.9
2022-12-12T02:59:29.691Z,7.6
2022-12-12T03:01:36.644Z,4.7
2022-12-12T03:03:40.397Z,7.3
2022-12-12T03:05:44.164Z,7.4
2022-12-12T03:08:02.502Z,6.4
2022-12-12T03:12:09.988Z,9.7
2022-12-12T03:14:16.909Z,10.2
2022-12-12T03:16:20.744Z,4.8
2022-12-12T03:18:24.487Z,7.8
2022-12-12T03:20:28.273Z,5.4
2022-12-12T03:24:35.859Z,11.2
2022-12-12T03:26:39.611Z,7.1
2022-12-12T03:28:46.538Z,7
2022-12-12T03:30:50.339Z,5.3
2022-12-12T03:32:54.113Z,4.7
2022-12-12T03:34:57.908Z,7.8
2022-12-12T03:37:01.685Z,7.4
2022-12-12T03:39:05.481Z,7.3
2022-12-12T03:41:09.295Z,7.4
2022-12-12T03:43:16.225Z,7.6
2022-12-12T03:45:20.000Z,9.1
2022-12-12T03:47:23.782Z,5.1
2022-12-12T03:49:27.571Z,6.2
2022-12-12T03:51:31.369Z,7.6
2022-12-12T03:53:35.163Z,7.6
2022-12-12T03:55:38.935Z,8.4
2022-12-12T03:57:45.850Z,6.6
2022-12-12T03:59:49.721Z,9.8
2022-12-12T04:01:53.531Z,7.6
2022-12-12T04:02:56.924Z,8.9
2022-12-12T04:05:00.702Z,6.8
2022-12-12T04:07:04.538Z,11.5
2022-12-12T04:11:16.821Z,9
2022-12-12T04:13:20.577Z,10
2022-12-12T04:15:24.361Z,10.4
2022-12-12T04:17:28.165Z,10
2022-12-12T04:19:31.946Z,5.5
2022-12-12T04:21:35.741Z,4.7
2022-12-12T04:23:39.560Z,8.3
2022-12-12T04:25:46.446Z,8.3
2022-12-12T04:27:50.261Z,7.5
2022-12-12T04:29:54.057Z,6.4
2022-12-12T04:31:57.906Z,8.9
2022-12-12T04:34:01.619Z,9.4
2022-12-12T04:36:05.412Z,6.2
2022-12-12T04:38:09.118Z,6.6
2022-12-12T04:40:16.040Z,6.2
2022-12-12T04:42:19.828Z,4.5
2022-12-12T04:46:27.408Z,7.2
2022-12-12T04:50:34.985Z,6.2
2022-12-12T04:52:38.767Z,8.3
2022-12-12T04:54:45.685Z,7.3
2022-12-12T04:56:49.473Z,6.6
2022-12-12T04:59:56.746Z,9.1
2022-12-12T05:04:04.299Z,5.3
2022-12-12T05:08:15.073Z,5.2
2022-12-12T05:10:18.844Z,9.1
2022-12-12T05:20:37.795Z,5.2
2022-12-12T05:22:44.678Z,8.1
2022-12-12T05:24:48.464Z,7.2
2022-12-12T05:26:52.248Z,7.3
2022-12-12T05:28:56.040Z,7.2
2022-12-12T05:30:59.896Z,6.4
2022-12-12T05:35:07.405Z,3.9
2022-12-12T05:37:14.338Z,7.2
2022-12-12T05:39:18.131Z,5.7
2022-12-12T05:41:21.928Z,6
2022-12-12T05:43:25.696Z,7.7
2022-12-12T05:45:29.506Z,5.4
2022-12-12T05:47:33.261Z,6.2
2022-12-12T05:49:37.045Z,8.2
2022-12-12T05:56:54.997Z,9.7
2022-12-12T05:58:58.794Z,8.1
2022-12-12T06:01:03.482Z,4.2
2022-12-12T06:03:06.360Z,6.7
2022-12-12T06:05:13.517Z,7.1
2022-12-12T06:07:17.102Z,8.2
2022-12-12T06:09:20.865Z,6.6
2022-12-12T06:11:24.646Z,9.9
2022-12-12T06:13:28.416Z,11
2022-12-12T06:17:36.006Z,9.1
2022-12-12T06:19:42.958Z,7.1
2022-12-12T06:25:54.299Z,4.6
2022-12-12T06:30:01.871Z,7.6
2022-12-12T06:32:05.629Z,6.1
2022-12-12T06:36:16.361Z,6.6
2022-12-12T06:38:20.140Z,7.5
2022-12-12T06:40:23.936Z,7.4
2022-12-12T06:42:27.685Z,8.3
2022-12-12T06:44:31.515Z,5.6
2022-12-12T06:46:35.348Z,7.5
2022-12-12T06:48:42.219Z,8.2
2022-12-12T06:50:46.005Z,6.4
2022-12-12T06:52:49.790Z,9.3
2022-12-12T06:55:08.598Z,7.4
2022-12-12T06:57:12.364Z,8.8
2022-12-12T06:59:16.151Z,8.3
2022-12-12T07:01:23.134Z,6.5
2022-12-12T07:03:26.874Z,4.4
2022-12-12T07:05:30.641Z,8.7
2022-12-12T07:07:34.453Z,8.8
2022-12-12T07:09:38.265Z,9.8
2022-12-12T07:11:42.069Z,7.3
2022-12-12T07:13:45.859Z,7.7
2022-12-12T07:15:52.800Z,7.7
2022-12-12T07:17:56.563Z,8.7
2022-12-12T07:20:00.393Z,7.6
2022-12-12T07:22:09.364Z,7.1
2022-12-12T07:24:07.980Z,10.8
2022-12-12T07:28:15.585Z,4.7
2022-12-12T07:32:26.235Z,6.5
2022-12-12T07:38:37.585Z,8.4
2022-12-12T07:40:41.402Z,7.6
2022-12-12T07:42:45.200Z,10.5
2022-12-12T07:44:52.122Z,5.7
2022-12-12T07:46:56.132Z,9.8
2022-12-12T07:50:03.128Z,8.2
2022-12-12T07:52:06.949Z,7.9
2022-12-12T07:54:10.703Z,9.1
2022-12-12T07:56:14.475Z,6.5
2022-12-12T07:58:21.379Z,11.3
2022-12-12T08:00:25.176Z,7.6
2022-12-12T08:02:28.974Z,7.8
2022-12-12T08:04:32.829Z,4.6
2022-12-12T08:06:36.540Z,9.3
2022-12-12T08:08:40.287Z,7.5
2022-12-12T08:10:44.067Z,8.2
2022-12-12T08:12:50.940Z,7.2
2022-12-12T08:14:54.721Z,5
2022-12-12T08:16:58.467Z,9.2
2022-12-12T08:19:02.232Z,7.2
2022-12-12T08:21:05.948Z,6
2022-12-12T08:27:20.360Z,6.9
2022-12-12T08:29:24.087Z,5.2
2022-12-12T08:31:27.945Z,6.1
2022-12-12T08:33:31.533Z,8.5
2022-12-12T08:35:35.294Z,7
2022-12-12T08:37:39.004Z,7.9
2022-12-12T08:39:42.735Z,11.7
2022-12-12T08:41:49.555Z,6
2022-12-12T08:43:53.285Z,5.1
2022-12-12T08:45:57.056Z,10
2022-12-12T08:47:00.499Z,4.4
2022-12-12T08:49:04.193Z,6.3
2022-12-12T08:51:07.870Z,7.2
2022-12-12T08:59:25.905Z,10.4
2022-12-12T09:07:40.798Z,7.6
2022-12-12T09:09:47.666Z,12.1
2022-12-12T09:11:51.407Z,7.3
2022-12-12T09:13:55.128Z,9.8
2022-12-12T09:15:58.939Z,12.9
2022-12-12T09:18:02.596Z,11.1
2022-12-12T09:20:06.311Z,8.4
2022-12-12T09:22:10.048Z,12.7
2022-12-12T09:30:28.182Z,8.8
2022-12-12T09:32:31.817Z,9.1
2022-12-12T09:34:35.598Z,10
2022-12-12T09:36:39.339Z,9.8
2022-12-12T09:38:46.237Z,12.1
2022-12-12T09:40:50.004Z,12.8
2022-12-12T09:42:53.756Z,12.5
2022-12-12T09:43:57.193Z,12.3
2022-12-12T09:46:01.143Z,14.1
2022-12-12T09:48:04.803Z,9.9
2022-12-12T09:50:08.526Z,15.7
2022-12-12T09:52:15.464Z,14.3
2022-12-12T09:54:19.242Z,11.6
2022-12-12T09:56:23.010Z,13.5
2022-12-12T09:58:26.875Z,8.6
2022-12-12T10:00:30.664Z,9.8
2022-12-12T10:02:34.410Z,11.3
2022-12-12T10:04:38.080Z,11.8
2022-12-12T10:06:44.908Z,7.9
2022-12-12T10:08:50.191Z,11.5
2022-12-12T10:12:57.754Z,11.9
2022-12-12T10:15:01.467Z,10.7
2022-12-12T10:17:05.153Z,10.6
2022-12-12T10:19:08.852Z,12.3
2022-12-12T10:21:15.615Z,9.4
2022-12-12T10:23:19.336Z,8.6
2022-12-12T10:25:23.215Z,8.2
2022-12-12T10:27:26.863Z,10.5
2022-12-12T10:29:30.701Z,7.7
2022-12-12T10:31:34.601Z,10.3
2022-12-12T10:33:38.247Z,7.2
2022-12-12T10:46:24.656Z,6.6
2022-12-12T10:48:31.431Z,7
2022-12-12T10:50:35.189Z,9.7
2022-12-12T10:52:39.009Z,6.4
2022-12-12T10:54:42.758Z,7
2022-12-12T10:56:46.466Z,8.3
2022-12-12T10:58:50.329Z,6.4
2022-12-12T11:03:01.048Z,7
2022-12-12T11:05:04.569Z,8.1
2022-12-12T11:07:08.388Z,7.9
2022-12-12T11:09:12.124Z,5.5
2022-12-12T11:11:15.983Z,6.7
2022-12-12T11:13:19.822Z,7.8
2022-12-12T11:15:23.625Z,5.2
2022-12-12T11:17:30.593Z,6.3
2022-12-12T11:19:34.424Z,3.8
2022-12-12T11:21:38.274Z,7
2022-12-12T11:23:42.066Z,7.1
2022-12-12T11:25:45.892Z,5.8
2022-12-12T11:27:49.731Z,3.9
2022-12-12T11:29:53.559Z,8.2
2022-12-12T11:32:00.590Z,8.5
2022-12-12T11:34:04.326Z,4.2
2022-12-12T11:36:08.103Z,4.5
2022-12-12T11:37:11.575Z,5
2022-12-12T11:39:15.374Z,5.3
2022-12-12T11:41:19.196Z,4.9
2022-12-12T11:49:37.553Z,6.5
2022-12-12T11:53:45.133Z,3.7
2022-12-12T11:59:59.659Z,7.2
2022-12-12T12:04:07.336Z,5.6
2022-12-12T12:06:11.035Z,4.4
2022-12-12T12:08:14.911Z,7.3
2022-12-12T12:10:24.035Z,8.8
2022-12-12T12:14:29.255Z,6.3
2022-12-12T12:18:36.841Z,4.9
2022-12-12T12:24:48.237Z,5.8
2022-12-12T12:26:52.019Z,5
2022-12-12T12:28:58.964Z,4
2022-12-12T12:31:02.770Z,4.5
2022-12-12T12:33:06.526Z,4.9
2022-12-12T12:34:10.030Z,9.6
2022-12-12T12:36:19.264Z,7.6
2022-12-12T12:38:17.645Z,7.6
2022-12-12T12:40:21.412Z,4.3
2022-12-12T12:42:28.346Z,9.8
2022-12-12T12:44:32.127Z,3.9
2022-12-12T12:46:36.038Z,4.6
2022-12-12T12:48:39.756Z,4.9
2022-12-12T12:56:58.100Z,5.3
2022-12-12T12:59:01.919Z,9.7
2022-12-12T13:01:05.652Z,6.3
2022-12-12T13:07:17.033Z,5.1
2022-12-12T13:09:20.827Z,4.5
2022-12-12T13:11:27.730Z,8
2022-12-12T13:15:35.287Z,4.5
2022-12-12T13:17:39.043Z,5.7
2022-12-12T13:21:46.638Z,4.7
2022-12-12T13:25:57.178Z,6.3
2022-12-12T13:28:00.944Z,6.8
2022-12-12T13:30:04.769Z,4.9
2022-12-12T13:31:12.937Z,8.9
2022-12-12T13:35:16.088Z,7.3
2022-12-12T13:39:26.579Z,7.3
2022-12-12T13:41:30.379Z,4.6
2022-12-12T13:43:34.179Z,7
2022-12-12T13:47:41.798Z,4.3
2022-12-12T13:49:45.588Z,6.4
2022-12-12T13:51:49.379Z,7.4
2022-12-12T13:53:56.346Z,5.3
2022-12-12T13:56:00.156Z,4.4
2022-12-12T13:58:03.953Z,9.8
2022-12-12T14:00:07.734Z,9
2022-12-12T14:02:11.518Z,4.1
2022-12-12T14:04:15.331Z,3.7
2022-12-12T14:06:19.027Z,5.5
2022-12-12T14:08:26.011Z,4.6
2022-12-12T14:10:29.629Z,9
2022-12-12T14:14:37.217Z,6.9
2022-12-12T14:16:41.031Z,6
2022-12-12T14:18:44.804Z,4
2022-12-12T14:20:48.576Z,6.7
2022-12-12T14:22:55.505Z,5.3
2022-12-12T14:24:59.267Z,8.2
2022-12-12T14:27:03.039Z,6.6
2022-12-12T14:29:27.492Z,6
2022-12-12T14:31:35.068Z,5.6
2022-12-12T14:33:35.050Z,11.2
2022-12-12T14:35:41.971Z,5.8
2022-12-12T14:37:51.241Z,9.2
2022-12-12T14:39:49.483Z,7.2
2022-12-12T14:41:53.237Z,4.4
2022-12-12T14:44:37.422Z,7
2022-12-12T14:46:01.262Z,5.7
2022-12-12T14:48:04.542Z,9.6
2022-12-12T14:50:11.704Z,3.7
2022-12-12T14:52:15.188Z,5
2022-12-12T14:58:26.458Z,5.4
2022-12-12T15:00:30.203Z,7.1
2022-12-12T15:02:34.081Z,6.2
2022-12-12T15:04:40.870Z,7.3
2022-12-12T15:06:44.632Z,8.5
2022-12-12T15:08:48.443Z,3.2
2022-12-12T15:10:52.131Z,3.3
2022-12-12T15:12:55.830Z,5.3
2022-12-12T15:14:59.565Z,7.6
2022-12-12T15:17:03.269Z,6.4
2022-12-12T15:19:10.157Z,5.6
2022-12-12T15:21:13.864Z,6.5
2022-12-12T15:23:17.621Z,6.6
2022-12-12T15:30:32.261Z,5.9
2022-12-12T15:32:39.108Z,5
2022-12-12T15:34:42.714Z,8
2022-12-12T15:36:46.409Z,4.4
2022-12-12T15:38:50.095Z,4.6
2022-12-12T15:40:53.789Z,6.5
2022-12-12T15:42:57.473Z,6.5
2022-12-12T15:45:01.116Z,6.1
2022-12-12T15:47:07.941Z,5.9
2022-12-12T15:49:11.635Z,6.3
2022-12-12T15:51:18.368Z,4.7
2022-12-12T15:53:19.012Z,4.5
2022-12-12T15:55:22.650Z,7.3
2022-12-12T15:57:26.415Z,6.7
2022-12-12T15:59:30.016Z,3.7
2022-12-12T16:01:36.928Z,9.5
2022-12-12T16:03:40.469Z,6.3
2022-12-12T16:05:45.674Z,4.5
2022-12-12T16:07:49.364Z,9.8
2022-12-12T16:09:52.978Z,7.5
2022-12-12T16:11:56.644Z,7.4
2022-12-12T16:14:00.289Z,5.8
2022-12-12T16:16:07.080Z,9.3
2022-12-12T16:18:10.780Z,10.5
2022-12-12T16:20:14.661Z,5.6
2022-12-12T16:21:17.794Z,11.3
2022-12-12T16:23:21.427Z,8.6
2022-12-12T16:25:25.071Z,5.9
2022-12-12T16:27:28.843Z,7.3
2022-12-12T16:29:35.515Z,8.8
2022-12-12T16:37:50.099Z,9.7
2022-12-12T16:39:53.707Z,9.7
2022-12-12T16:44:04.115Z,7.5
2022-12-12T16:46:07.768Z,7
2022-12-12T16:48:11.375Z,9
2022-12-12T16:50:15.257Z,5.9
2022-12-12T16:52:18.617Z,3.8
2022-12-12T16:54:22.283Z,6.1
2022-12-12T16:56:25.903Z,7.3
2022-12-12T16:58:32.661Z,7.2
2022-12-12T17:00:36.362Z,5.6
2022-12-12T17:02:39.889Z,8.2
2022-12-12T17:04:43.515Z,11.5
2022-12-12T17:06:47.138Z,8.2
2022-12-12T17:08:50.768Z,7.9
2022-12-12T17:11:10.028Z,6.7
2022-12-12T17:13:01.132Z,13.9
2022-12-12T17:15:04.727Z,10.5
2022-12-12T17:17:08.336Z,8.5
2022-12-12T17:20:15.726Z,12.3
2022-12-12T17:22:18.912Z,12.5
2022-12-12T17:24:22.513Z,10.7
2022-12-12T17:26:29.330Z,8.1
2022-12-12T17:28:32.806Z,9.8
2022-12-12T17:30:36.383Z,8.4
2022-12-12T17:32:39.987Z,9.2
2022-12-12T17:34:43.573Z,8.8
2022-12-12T17:36:47.180Z,10.1
2022-12-12T17:38:50.755Z,8.7
2022-12-12T17:40:57.484Z,10.2
2022-12-12T17:43:01.060Z,9.1
2022-12-12T17:45:04.680Z,16.3
2022-12-12T17:49:11.830Z,13.7
2022-12-12T17:51:15.394Z,9.7
2022-12-12T17:53:19.021Z,8
2022-12-12T17:55:51.650Z,11.8
2022-12-12T17:57:29.299Z,11.4
2022-12-12T17:59:32.854Z,9.5
2022-12-12T18:01:36.466Z,12.1
2022-12-12T18:05:43.591Z,8.1
2022-12-12T18:07:47.193Z,13
2022-12-12T18:11:57.469Z,13.4
2022-12-12T18:16:25.193Z,13.3
2022-12-12T18:18:28.712Z,17.2
2022-12-12T18:20:32.267Z,13.8
2022-12-12T18:22:39.049Z,15.4
2022-12-12T18:24:42.578Z,16.1
2022-12-12T18:26:46.155Z,12.9
2022-12-12T18:33:01.298Z,18.1
2022-12-12T18:35:00.446Z,14
2022-12-12T18:37:07.155Z,20.9
2022-12-12T18:39:10.705Z,19
2022-12-12T18:41:14.272Z,19.7
2022-12-12T18:43:17.853Z,14.6
2022-12-12T18:45:21.413Z,16.9
2022-12-12T18:47:24.958Z,16.3
2022-12-12T18:49:28.532Z,18.3
2022-12-12T18:57:45.835Z,18.2
2022-12-12T18:59:49.407Z,17.8
2022-12-12T19:01:53.049Z,19.2
2022-12-12T19:06:03.183Z,17.4
2022-12-12T19:08:06.752Z,19.6
2022-12-12T19:10:10.286Z,19.7
2022-12-12T19:11:13.591Z,21.4
2022-12-12T19:13:17.146Z,23.3
2022-12-12T19:15:20.641Z,23.8
2022-12-12T19:19:30.878Z,24.1
2022-12-12T19:21:34.406Z,25.9
2022-12-12T19:23:37.937Z,23
2022-12-12T19:27:44.998Z,24.4
2022-12-12T19:29:48.518Z,25.7
2022-12-12T19:31:56.971Z,23.5
2022-12-12T19:33:58.733Z,25.4
2022-12-12T19:36:02.256Z,29.9
2022-12-12T19:38:05.793Z,29.9
2022-12-12T19:40:09.330Z,24.7
2022-12-12T19:42:12.837Z,23.2
2022-12-12T19:44:16.359Z,27.6
2022-12-12T19:46:19.926Z,26.1
2022-12-12T19:50:30.121Z,32.6
2022-12-12T19:54:37.160Z,33.3
2022-12-12T19:56:40.668Z,25.9
2022-12-12T20:02:54.485Z,33.9
2022-12-12T20:04:57.909Z,38.7
2022-12-12T20:07:01.440Z,32.9
2022-12-12T20:10:08.318Z,36.6
2022-12-12T20:12:11.827Z,35.5
2022-12-12T20:14:15.351Z,33.3
2022-12-12T20:16:22.057Z,42.2
2022-12-12T20:18:25.522Z,37.2
2022-12-12T20:20:29.019Z,44.2
2022-12-12T20:22:32.534Z,39.7
2022-12-12T20:24:36.062Z,40
2022-12-12T20:26:39.569Z,43.7
2022-12-12T20:30:53.404Z,51.8
2022-12-12T20:32:53.240Z,50.9
2022-12-12T20:34:56.766Z,45.4
2022-12-12T20:37:00.266Z,45.6
2022-12-12T20:39:03.781Z,43.9
2022-12-12T20:41:07.282Z,44.5
2022-12-12T20:43:10.771Z,47.8
2022-12-12T20:45:17.458Z,57.1
2022-12-12T20:51:53.955Z,49.9
2022-12-12T20:55:34.966Z,49
2022-12-12T20:57:38.472Z,48.4
2022-12-12T21:03:52.094Z,46.2
2022-12-12T21:04:55.427Z,52.3
2022-12-12T21:06:58.917Z,48.6
2022-12-12T21:09:02.452Z,63.4
2022-12-12T21:11:05.870Z,47.3
2022-12-12T21:15:16.583Z,50.2
2022-12-12T21:17:19.533Z,50.1
2022-12-12T21:19:23.030Z,52.3
2022-12-12T21:21:26.510Z,55.4
2022-12-12T21:25:33.459Z,51.2
2022-12-12T21:27:40.088Z,60.3
2022-12-12T21:29:43.560Z,66.8
2022-12-12T21:31:51.082Z,54.3
2022-12-12T21:33:50.555Z,54.5
2022-12-12T21:35:54.035Z,61.8
2022-12-12T21:37:57.500Z,53.2
2022-12-12T21:40:00.991Z,55.6
2022-12-12T21:42:07.623Z,59.3
2022-12-12T21:44:11.092Z,57.6
2022-12-12T21:46:14.638Z,59.1
2022-12-12T21:48:18.045Z,55.7
2022-12-12T21:50:26.014Z,62.4
2022-12-12T21:54:28.506Z,51.6
2022-12-12T21:56:35.106Z,60.8
2022-12-12T21:58:38.573Z,59
2022-12-12T22:03:01.649Z,65.9
2022-12-12T22:05:05.061Z,67.1
2022-12-12T22:07:08.516Z,60.2
2022-12-12T22:11:33.971Z,67.6
2022-12-12T22:13:22.074Z,66.4
2022-12-12T22:17:28.989Z,65.2
2022-12-12T22:19:32.447Z,62.5
2022-12-12T22:21:35.911Z,61.4
2022-12-12T22:23:42.506Z,64.2
2022-12-12T22:27:49.418Z,66.6
2022-12-12T22:33:59.769Z,65
2022-12-12T22:36:03.232Z,61.5
2022-12-12T22:38:09.848Z,70.1
2022-12-12T22:40:13.300Z,73
2022-12-12T22:42:16.777Z,74.1
2022-12-12T22:44:20.180Z,67.8
2022-12-12T22:46:23.644Z,66.3
2022-12-12T22:48:27.080Z,66.1
2022-12-12T22:50:30.528Z,65.6
2022-12-12T22:52:37.108Z,70.7
2022-12-12T22:54:40.544Z,60.6
2022-12-12T22:56:43.986Z,64
2022-12-12T22:57:47.302Z,62.6
2022-12-12T22:59:50.723Z,67.8
2022-12-12T23:03:57.587Z,67.5
2022-12-12T23:08:07.681Z,68.8
2022-12-12T23:10:11.093Z,69.9
2022-12-12T23:12:14.507Z,78
2022-12-12T23:14:17.946Z,79.6
2022-12-12T23:16:21.540Z,71.2
2022-12-12T23:18:24.810Z,65.3
2022-12-12T23:20:31.425Z,79.5
2022-12-12T23:22:34.811Z,77.8
2022-12-12T23:24:38.294Z,68.6
2022-12-12T23:26:41.720Z,68.1
2022-12-12T23:28:45.131Z,74.5
2022-12-12T23:30:48.555Z,71.9
2022-12-12T23:32:51.960Z,69.3
2022-12-12T23:34:58.542Z,75.5
2022-12-12T23:37:01.981Z,73.7
2022-12-12T23:41:08.831Z,65.5
2022-12-12T23:43:12.269Z,68.2
2022-12-12T23:45:16.065Z,63.8
2022-12-12T23:47:19.130Z,66
2022-12-12T23:49:25.695Z,76
2022-12-12T23:51:29.080Z,76.8
2022-12-12T23:53:32.540Z,68.9
